Maulden, Kentucky
Current Conditions -  °F | °C
As of 3:53 PM on Friday 24 Oct 2014 (Local Time) from KLOZ Reporting Station
Clear Clear  
Wind Chill: 67°   Ceiling: Unl
Heat Index: 67°   Visibility: 10mi
Dew Point: 39°   Wind: 0mph
Humidity: 36%   Direction: NA
Pressure: 30.06"   Gusts: NA
Location:  37.346°N, 83.8503°W
Report Text: KLOZ 241953Z AUTO 00000KT 10SM CLR 19/04 A3006 RMK AO2 SLP175 T01940039
Loading
Personal Weather Stations






























Interactive Weather Map
Tropical Storm Tracking
New forecast layout! Learn more

10-Day Weather Forecast

Advertisements
Track Severe Weather on mobile